Time;durP1;ratioP1;P1;durP2;ratioP2;P2;SDS_P1;SDS_P2;PMS_P1;PMS_P2;Temp;Humidity;BMP_temperature;BMP_pressure;BME280_temperature;BME280_humidity;BME280_pressure;Samples;Min_cycle;Max_cycle;Signal;HPM_P1;HPM_P2
2023/12/31 00:00:24;;;;;;;0.20;0.20;;;;;;;10.67;60.14;101649.84;4954898;29;20042;-88
2023/12/31 00:02:49;;;;;;;0.20;0.20;;;;;;;10.65;60.03;101647.31;4955758;28;20031;-89
2023/12/31 00:05:15;;;;;;;0.10;0.10;;;;;;;10.50;60.42;101627.94;4970712;28;20070;-90
2023/12/31 00:07:40;;;;;;;0.20;0.20;;;;;;;10.44;60.46;101622.97;4970880;28;20098;-90
2023/12/31 00:10:07;;;;;;;0.20;0.20;;;;;;;10.46;60.68;101636.69;4954622;29;20031;-88
2023/12/31 00:12:32;;;;;;;0.20;0.20;;;;;;;10.33;60.88;101635.41;4954664;29;20506;-88
2023/12/31 00:14:58;;;;;;;0.10;0.10;;;;;;;10.44;60.57;101638.50;4970693;28;20039;-88
2023/12/31 00:17:23;;;;;;;0.20;0.20;;;;;;;10.39;60.76;101645.53;4970615;28;20042;-88
2023/12/31 00:19:49;;;;;;;0.20;0.20;;;;;;;10.28;60.71;101637.28;4970738;28;20062;-89
2023/12/31 00:22:14;;;;;;;0.20;0.20;;;;;;;10.31;60.67;101650.13;4970708;28;20462;-89
2023/12/31 00:24:40;;;;;;;0.10;0.10;;;;;;;10.25;60.91;101652.91;4970632;28;20031;-88
2023/12/31 00:27:05;;;;;;;0.20;0.20;;;;;;;10.11;61.26;101639.50;4955302;28;20034;-87
2023/12/31 00:29:31;;;;;;;0.20;0.20;;;;;;;10.12;61.38;101633.44;4955418;28;20035;-89
2023/12/31 00:31:56;;;;;;;0.10;0.10;;;;;;;10.08;61.67;101630.13;4970064;28;20035;-87
2023/12/31 00:34:22;;;;;;;0.20;0.20;;;;;;;10.07;61.64;101639.63;4955415;28;20058;-88
2023/12/31 00:36:47;;;;;;;0.20;0.20;;;;;;;10.17;61.27;101649.69;4954262;29;20027;-86
2023/12/31 00:39:13;;;;;;;0.20;0.20;;;;;;;10.17;61.31;101649.69;4970333;28;20086;-88
2023/12/31 00:41:38;;;;;;;0.20;0.20;;;;;;;10.06;61.64;101650.84;4970116;28;20035;-87
2023/12/31 00:44:04;;;;;;;0.10;0.10;;;;;;;10.15;61.42;101661.81;4970062;28;20033;-88
2023/12/31 00:46:29;;;;;;;0.20;0.20;;;;;;;10.08;61.57;101666.31;4952744;28;20035;-88
2023/12/31 00:48:55;;;;;;;0.20;0.20;;;;;;;10.09;61.50;101656.81;4954848;28;20039;-86
2023/12/31 00:51:21;;;;;;;0.10;0.10;;;;;;;9.93;61.59;101646.97;4955147;28;20031;-88
2023/12/31 00:53:46;;;;;;;0.20;0.20;;;;;;;9.98;61.74;101654.56;4954646;28;20038;-88
2023/12/31 00:56:12;;;;;;;0.20;0.20;;;;;;;9.83;62.19;101647.25;4953819;29;20023;-88
2023/12/31 00:58:37;;;;;;;0.20;0.20;;;;;;;9.88;62.18;101648.81;4970037;28;20462;-87
2023/12/31 01:01:03;;;;;;;0.20;0.20;;;;;;;9.83;62.10;101645.50;4969564;28;20426;-87
2023/12/31 01:03:29;;;;;;;0.10;0.10;;;;;;;9.70;62.44;101641.59;4969761;28;20030;-88
2023/12/31 01:06:02;;;;;;;0.20;0.20;;;;;;;9.54;62.57;101617.09;4952263;29;20034;-88
2023/12/31 01:08:28;;;;;;;0.10;0.10;;;;;;;9.60;62.72;101642.75;4969576;28;20414;-89
2023/12/31 01:10:53;;;;;;;0.10;0.10;;;;;;;9.54;62.83;101636.03;4954874;28;20539;-86
2023/12/31 01:13:19;;;;;;;0.20;0.20;;;;;;;9.62;62.99;101646.13;4954673;28;20063;-88
2023/12/31 01:15:45;;;;;;;0.20;0.20;;;;;;;9.49;62.87;101628.41;4969154;28;20498;-89
2023/12/31 01:18:10;;;;;;;0.10;0.10;;;;;;;9.44;63.10;101630.28;4969984;28;20043;-88
2023/12/31 01:20:36;;;;;;;0.10;0.10;;;;;;;9.59;62.83;101646.22;4953551;29;20023;-87
2023/12/31 01:23:01;;;;;;;0.20;0.20;;;;;;;9.44;63.05;101645.78;4969591;28;20039;-88
2023/12/31 01:25:45;;;;;;;0.20;0.20;;;;;;;9.46;62.99;101640.56;4954652;28;20034;-88
2023/12/31 01:28:11;;;;;;;0.20;0.20;;;;;;;9.54;63.01;101641.22;4953528;29;20058;-88
2023/12/31 01:30:36;;;;;;;0.10;0.10;;;;;;;9.48;63.04;101642.22;4968971;28;20561;-86
2023/12/31 01:33:02;;;;;;;0.20;0.20;;;;;;;9.31;63.23;101635.81;4953042;29;20031;-89
2023/12/31 01:35:27;;;;;;;0.20;0.20;;;;;;;9.27;63.32;101639.38;4969123;28;20456;-87
2023/12/31 01:37:53;;;;;;;0.20;0.20;;;;;;;9.30;63.43;101636.72;4954724;28;20445;-89
2023/12/31 01:40:18;;;;;;;0.20;0.20;;;;;;;9.20;63.45;101626.63;4969295;28;20029;-87
2023/12/31 01:42:44;;;;;;;0.20;0.20;;;;;;;9.19;63.60;101643.03;4954382;28;20027;-88
2023/12/31 01:45:10;;;;;;;0.20;0.20;;;;;;;9.15;63.65;101645.75;4969012;28;20046;-88
2023/12/31 01:47:35;;;;;;;0.10;0.10;;;;;;;9.09;63.73;101640.72;4954039;28;20024;-87
2023/12/31 01:50:02;;;;;;;0.10;0.10;;;;;;;9.01;63.75;101653.81;4969137;28;20557;-88
2023/12/31 01:52:29;;;;;;;0.10;0.10;;;;;;;8.95;63.63;101637.66;4968850;28;20035;-87
2023/12/31 01:54:56;;;;;;;0.20;0.20;;;;;;;8.85;63.41;101616.44;4968866;28;20090;-87
2023/12/31 01:57:24;;;;;;;0.20;0.20;;;;;;;9.10;63.44;101647.56;4968922;28;20115;-88
2023/12/31 01:59:50;;;;;;;0.20;0.20;;;;;;;8.99;63.35;101634.97;4952472;29;20485;-89
2023/12/31 02:02:16;;;;;;;0.10;0.10;;;;;;;9.04;63.27;101647.72;4968843;28;20159;-88
2023/12/31 02:04:42;;;;;;;0.20;0.20;;;;;;;8.99;63.33;101641.84;4952604;29;20068;-89
2023/12/31 02:07:07;;;;;;;0.20;0.20;;;;;;;8.95;63.56;101643.69;4968701;28;20663;-89
2023/12/31 02:09:33;;;;;;;0.10;0.10;;;;;;;8.78;64.00;101631.19;4968885;28;20062;-89
2023/12/31 02:11:59;;;;;;;0.20;0.20;;;;;;;8.87;63.82;101641.28;4952778;29;20035;-88
2023/12/31 02:14:24;;;;;;;0.10;0.10;;;;;;;8.91;63.86;101642.91;4952097;29;20433;-88
2023/12/31 02:16:50;;;;;;;0.10;0.10;;;;;;;8.90;63.11;101638.63;4968317;28;20031;-89
2023/12/31 02:19:16;;;;;;;0.10;0.10;;;;;;;8.86;63.27;101636.19;4952430;29;20138;-89
2023/12/31 02:21:41;;;;;;;0.17;0.17;;;;;;;8.80;63.64;101650.06;4952341;29;20489;-88
2023/12/31 02:24:07;;;;;;;0.10;0.10;;;;;;;8.67;64.15;101638.38;4968563;28;20409;-87
2023/12/31 02:26:32;;;;;;;0.20;0.20;;;;;;;8.53;64.34;101627.53;4936376;29;20127;-88
2023/12/31 02:28:58;;;;;;;0.20;0.20;;;;;;;8.50;64.57;101614.72;4967746;28;20035;-87
2023/12/31 02:31:24;;;;;;;0.20;0.20;;;;;;;8.54;63.89;101639.53;4968230;28;20035;-88
2023/12/31 02:33:49;;;;;;;0.10;0.10;;;;;;;8.34;64.32;101617.66;4952931;28;20398;-88
2023/12/31 02:36:15;;;;;;;0.20;0.20;;;;;;;8.39;64.69;101621.88;4968478;28;20063;-88
2023/12/31 02:38:40;;;;;;;0.20;0.20;;;;;;;8.41;64.59;101622.69;4968182;28;20544;-89
2023/12/31 02:41:06;;;;;;;0.10;0.10;;;;;;;8.51;64.50;101631.88;4968323;28;20043;-89
2023/12/31 02:43:31;;;;;;;0.10;0.10;;;;;;;8.28;64.73;101594.59;4951827;29;20445;-88
2023/12/31 02:45:57;;;;;;;0.20;0.20;;;;;;;8.59;64.71;101635.13;4953110;28;20066;-90
2023/12/31 02:48:22;;;;;;;0.20;0.20;;;;;;;8.59;64.49;101623.06;4951834;29;20074;-89
2023/12/31 02:50:48;;;;;;;0.20;0.20;;;;;;;8.59;64.73;101619.66;4951835;29;20031;-89
2023/12/31 02:53:13;;;;;;;0.20;0.20;;;;;;;8.61;64.72;101626.47;4952667;28;20039;-88
2023/12/31 02:55:39;;;;;;;0.20;0.20;;;;;;;8.72;64.57;101631.34;4967989;28;20035;-87
2023/12/31 02:58:04;;;;;;;0.20;0.20;;;;;;;8.59;64.15;101599.00;4967753;28;20059;-88
2023/12/31 03:00:30;;;;;;;0.10;0.10;;;;;;;8.64;64.35;101604.88;4952662;28;20032;-89
2023/12/31 03:02:56;;;;;;;0.20;0.20;;;;;;;8.73;64.16;101622.72;4953111;28;20482;-87
2023/12/31 03:05:21;;;;;;;0.20;0.20;;;;;;;8.77;63.96;101626.94;4953178;29;20061;-88
2023/12/31 03:07:47;;;;;;;0.20;0.20;;;;;;;8.62;64.36;101619.56;4967376;28;20035;-88
2023/12/31 03:10:12;;;;;;;0.20;0.20;;;;;;;8.68;64.16;101619.41;4951995;28;20038;-88
2023/12/31 03:12:38;;;;;;;0.10;0.10;;;;;;;8.64;64.27;101617.78;4951070;29;20126;-88
2023/12/31 03:15:04;;;;;;;0.20;0.20;;;;;;;8.63;64.19;101623.84;4967197;28;20437;-88
2023/12/31 03:17:29;;;;;;;0.20;0.20;;;;;;;8.59;64.40;101624.81;4967560;28;20478;-88
2023/12/31 03:19:55;;;;;;;0.20;0.20;;;;;;;8.53;64.39;101619.78;4952653;29;20023;-89
2023/12/31 03:22:20;;;;;;;0.10;0.10;;;;;;;8.57;64.35;101626.59;4967578;28;20119;-85
2023/12/31 03:24:46;;;;;;;0.20;0.20;;;;;;;8.50;64.08;101619.88;4951428;29;20037;-90
2023/12/31 03:27:11;;;;;;;0.10;0.10;;;;;;;8.42;64.59;101611.47;4950922;29;20391;-89
2023/12/31 03:29:37;;;;;;;0.20;0.20;;;;;;;8.39;64.09;101585.78;4952713;28;20411;-86
2023/12/31 03:32:03;;;;;;;0.10;0.10;;;;;;;8.51;64.30;101622.41;4967533;28;20039;-87
2023/12/31 03:34:29;;;;;;;0.20;0.20;;;;;;;8.50;64.18;101630.19;4967313;28;20512;-89
2023/12/31 03:36:55;;;;;;;0.20;0.20;;;;;;;8.49;64.03;101633.66;4967500;28;20062;-88
2023/12/31 03:39:20;;;;;;;0.10;0.10;;;;;;;8.43;64.14;101624.31;4967481;28;20038;-88
2023/12/31 03:41:48;;;;;;;0.20;0.20;;;;;;;8.45;64.15;101634.59;4967159;28;20030;-88
2023/12/31 03:44:13;;;;;;;0.20;0.20;;;;;;;8.50;63.62;101628.47;4951360;29;20042;-87
2023/12/31 03:46:39;;;;;;;0.10;0.10;;;;;;;8.47;64.02;101640.59;4967243;28;20226;-87
2023/12/31 03:49:04;;;;;;;0.10;0.10;;;;;;;8.43;63.76;101639.78;4951236;29;20027;-86
2023/12/31 03:51:30;;;;;;;0.20;0.20;;;;;;;8.38;63.79;101625.34;4967478;28;20461;-88
2023/12/31 03:53:56;;;;;;;0.20;0.20;;;;;;;8.34;64.04;101638.28;4952445;28;20027;-88
2023/12/31 03:56:22;;;;;;;0.20;0.20;;;;;;;8.15;64.13;101615.50;4950895;29;20050;-87
2023/12/31 03:58:47;;;;;;;0.10;0.10;;;;;;;8.15;64.44;101633.56;4951208;29;20031;-89
2023/12/31 04:01:13;;;;;;;0.20;0.20;;;;;;;7.96;64.56;101617.66;4967342;28;20478;-87
2023/12/31 04:03:39;;;;;;;0.10;0.10;;;;;;;8.13;64.51;101643.91;4967087;28;20497;-87
2023/12/31 04:06:06;;;;;;;0.20;0.20;;;;;;;8.04;64.47;101636.38;4951212;29;20033;-88
2023/12/31 04:08:32;;;;;;;0.10;0.10;;;;;;;7.92;65.07;101626.34;4966895;28;20027;-87
2023/12/31 04:10:58;;;;;;;0.10;0.10;;;;;;;7.85;65.13;101633.34;4951958;29;20081;-89
2023/12/31 04:13:23;;;;;;;0.10;0.10;;;;;;;7.95;65.06;101657.19;4950908;29;20054;-88
2023/12/31 04:15:49;;;;;;;0.20;0.20;;;;;;;7.89;65.14;101642.72;4967275;28;20059;-87
2023/12/31 04:18:14;;;;;;;0.20;0.20;;;;;;;7.80;65.10;101634.34;4951133;29;20490;-88
2023/12/31 04:20:40;;;;;;;0.20;0.20;;;;;;;7.83;65.34;101647.16;4968077;28;20457;-89
2023/12/31 04:23:05;;;;;;;0.10;0.10;;;;;;;7.73;65.58;101646.50;4970918;28;20441;-87
2023/12/31 04:25:31;;;;;;;0.10;0.10;;;;;;;7.58;65.46;101637.38;4955360;28;20489;-88
2023/12/31 04:27:58;;;;;;;0.20;0.20;;;;;;;7.63;65.54;101653.56;4955386;29;20519;-87
2023/12/31 04:30:24;;;;;;;0.10;0.10;;;;;;;7.61;65.48;101663.06;4970358;28;20174;-87
2023/12/31 04:32:49;;;;;;;0.10;0.10;;;;;;;7.57;65.79;101670.84;4970449;28;20557;-87
2023/12/31 04:35:15;;;;;;;0.10;0.10;;;;;;;7.52;65.70;101663.25;4970486;28;20509;-89
2023/12/31 04:37:40;;;;;;;0.10;0.10;;;;;;;7.24;65.81;101637.19;4970112;28;20509;-89
2023/12/31 04:40:06;;;;;;;0.10;0.10;;;;;;;7.27;66.31;101646.56;4954530;29;20553;-88
2023/12/31 04:42:32;;;;;;;0.20;0.20;;;;;;;7.15;66.39;101639.91;4954069;29;20030;-89
2023/12/31 04:44:59;;;;;;;0.20;0.20;;;;;;;7.22;66.33;101648.38;4969997;28;20035;-88
2023/12/31 04:47:25;;;;;;;0.20;0.20;;;;;;;7.11;66.90;101651.16;4955534;29;20502;-88
2023/12/31 04:49:50;;;;;;;0.10;0.10;;;;;;;7.13;67.03;101655.38;4938190;29;20035;-86
2023/12/31 04:52:16;;;;;;;0.20;0.20;;;;;;;7.13;67.36;101660.53;4954205;29;20028;-88
2023/12/31 04:54:41;;;;;;;0.20;0.20;;;;;;;7.06;66.87;101658.09;4969870;28;20035;-87
2023/12/31 04:57:07;;;;;;;0.10;0.10;;;;;;;6.89;67.49;101641.25;4970072;28;20031;-87
2023/12/31 04:59:33;;;;;;;0.20;0.20;;;;;;;7.06;66.76;101661.50;4953843;29;20402;-87
2023/12/31 05:01:58;;;;;;;0.20;0.20;;;;;;;6.93;67.12;101657.47;4969799;28;20035;-87
2023/12/31 05:04:24;;;;;;;0.10;0.10;;;;;;;6.80;67.24;101638.00;4953532;29;20047;-87
2023/12/31 05:06:49;;;;;;;0.20;0.20;;;;;;;6.88;67.35;101655.00;4970011;28;20038;-89
2023/12/31 05:09:15;;;;;;;0.10;0.10;;;;;;;6.85;67.49;101654.19;4969274;28;20039;-89
2023/12/31 05:11:41;;;;;;;0.10;0.10;;;;;;;6.75;68.03;101662.91;4969871;28;20035;-88
2023/12/31 05:14:06;;;;;;;0.10;0.10;;;;;;;6.76;68.25;101672.34;4954729;29;20051;-88
2023/12/31 05:16:32;;;;;;;0.10;0.10;;;;;;;6.70;67.86;101654.44;4937256;29;20544;-88
2023/12/31 05:18:58;;;;;;;0.10;0.10;;;;;;;6.65;68.24;101664.78;4954558;29;20027;-86
2023/12/31 05:21:23;;;;;;;0.10;0.10;;;;;;;6.61;68.46;101664.00;4969724;28;20150;-89
2023/12/31 05:23:49;;;;;;;0.20;0.20;;;;;;;6.58;68.43;101668.31;4954300;29;20023;-88
2023/12/31 05:26:15;;;;;;;0.10;0.10;;;;;;;6.50;68.38;101647.91;4937486;29;20023;-87
2023/12/31 05:28:40;;;;;;;0.20;0.20;;;;;;;6.65;67.84;101672.50;4969641;28;20031;-87
2023/12/31 05:31:06;;;;;;;0.20;0.20;;;;;;;6.60;68.07;101670.03;4969515;28;20035;-88
2023/12/31 05:33:31;;;;;;;0.20;0.20;;;;;;;6.42;68.35;101649.75;4920898;29;20231;-87
2023/12/31 05:35:57;;;;;;;0.10;0.10;;;;;;;6.34;68.49;101654.16;4953176;29;20122;-87
2023/12/31 05:38:23;;;;;;;0.20;0.20;;;;;;;6.44;69.01;101668.56;4953113;29;20090;-88
2023/12/31 05:40:48;;;;;;;0.10;0.10;;;;;;;6.44;68.81;101668.56;4953463;29;20035;-88
2023/12/31 05:43:14;;;;;;;0.10;0.10;;;;;;;6.45;69.10;101680.53;4969218;28;20023;-88
2023/12/31 05:45:39;;;;;;;0.15;0.15;;;;;;;6.40;68.88;101660.94;4953258;29;20058;-89
2023/12/31 05:48:05;;;;;;;0.20;0.20;;;;;;;6.42;68.82;101679.75;4953040;29;20039;-87
2023/12/31 05:50:31;;;;;;;0.20;0.20;;;;;;;6.33;68.73;101670.44;4954194;29;20506;-88
2023/12/31 05:52:56;;;;;;;0.20;0.20;;;;;;;6.38;68.53;101681.47;4920874;29;20038;-88
2023/12/31 05:55:22;;;;;;;0.10;0.10;;;;;;;6.39;68.63;101684.91;4952936;29;20505;-88
2023/12/31 05:57:48;;;;;;;0.10;0.10;;;;;;;6.32;68.71;101673.88;4952736;29;20043;-89
2023/12/31 06:00:14;;;;;;;0.10;0.10;;;;;;;6.16;68.80;101657.81;4969093;28;20094;-88
2023/12/31 06:02:40;;;;;;;0.20;0.20;;;;;;;6.15;69.21;101678.41;4952681;29;20452;-87
2023/12/31 06:05:06;;;;;;;0.20;0.20;;;;;;;5.98;69.57;101658.94;4952910;29;20031;-88
2023/12/31 06:07:31;;;;;;;0.20;0.20;;;;;;;6.21;69.21;101691.19;4968574;28;20034;-88
2023/12/31 06:09:57;;;;;;;0.20;0.20;;;;;;;6.07;69.16;101675.09;4952654;29;20153;-88
2023/12/31 06:12:23;;;;;;;0.20;0.20;;;;;;;6.11;68.76;101687.03;4920717;29;20126;-87
2023/12/31 06:14:48;;;;;;;0.20;0.20;;;;;;;6.11;68.50;101698.16;4968903;28;20106;-86
2023/12/31 06:17:14;;;;;;;0.20;0.20;;;;;;;5.98;69.44;101694.88;4968765;28;20493;-88
2023/12/31 06:19:40;;;;;;;0.10;0.10;;;;;;;5.77;69.44;101669.44;4952336;29;20498;-86
2023/12/31 06:22:06;;;;;;;0.20;0.20;;;;;;;5.80;69.87;101695.09;4953438;29;20054;-89
2023/12/31 06:24:31;;;;;;;0.10;0.10;;;;;;;5.86;69.07;101699.31;4968674;28;20078;-90
2023/12/31 06:26:57;;;;;;;0.13;0.13;;;;;;;5.82;69.22;101701.06;4920577;29;20193;-88
2023/12/31 06:29:23;;;;;;;0.10;0.10;;;;;;;5.78;68.96;101701.09;4936508;29;20504;-90
2023/12/31 06:31:48;;;;;;;0.10;0.10;;;;;;;5.62;69.21;101696.16;4953310;29;20031;-90
2023/12/31 06:34:14;;;;;;;0.20;0.20;;;;;;;5.74;69.45;101708.84;4953483;29;20038;-90
2023/12/31 06:36:39;;;;;;;0.10;0.10;;;;;;;5.67;69.33;101707.22;4953098;29;20039;-89
2023/12/31 06:39:07;;;;;;;0.20;0.20;;;;;;;5.72;69.99;101717.44;4968054;28;20077;-90
2023/12/31 06:41:33;;;;;;;0.10;0.10;;;;;;;5.59;70.07;101697.91;4952375;29;20027;-89
2023/12/31 06:43:59;;;;;;;0.20;0.20;;;;;;;5.81;69.62;101726.78;4935497;29;20039;-90
2023/12/31 06:46:25;;;;;;;0.20;0.20;;;;;;;5.59;70.46;101710.75;4952274;29;20037;-89
2023/12/31 06:48:51;;;;;;;0.20;0.20;;;;;;;5.48;70.97;101723.69;4952167;29;20489;-92
2023/12/31 06:51:16;;;;;;;0.10;0.10;;;;;;;5.63;71.28;101733.81;4935751;29;20039;-91
2023/12/31 06:53:42;;;;;;;0.20;0.20;;;;;;;5.68;71.54;101736.31;4951467;29;20042;-90
2023/12/31 06:56:08;;;;;;;0.20;0.20;;;;;;;5.67;72.30;101732.03;4968105;28;20121;-91
2023/12/31 06:58:35;;;;;;;0.20;0.20;;;;;;;5.74;72.39;101728.56;4935742;29;20023;-90
2023/12/31 07:01:01;;;;;;;0.20;0.20;;;;;;;5.77;72.52;101731.06;4952168;29;20351;-90
2023/12/31 07:03:26;;;;;;;0.20;0.20;;;;;;;5.86;72.40;101730.13;4952634;29;20030;-91
2023/12/31 07:05:52;;;;;;;0.10;0.10;;;;;;;5.78;72.22;101714.78;4935834;29;20055;-90
2023/12/31 07:08:17;;;;;;;0.10;0.10;;;;;;;5.94;72.08;101733.50;4951749;29;20446;-90
2023/12/31 07:10:43;;;;;;;0.10;0.10;;;;;;;6.01;72.36;101741.09;4967869;28;20409;-91
2023/12/31 07:13:08;;;;;;;0.10;0.10;;;;;;;6.08;72.63;101743.56;4935569;29;20552;-90
2023/12/31 07:15:34;;;;;;;0.10;0.10;;;;;;;6.14;72.69;101740.94;4951639;29;20027;-90
2023/12/31 07:18:00;;;;;;;0.10;0.10;;;;;;;6.23;72.26;101751.09;4935639;29;20031;-90
2023/12/31 07:20:25;;;;;;;0.20;0.20;;;;;;;6.28;72.15;101739.88;4935555;29;20416;-90
2023/12/31 07:22:53;;;;;;;0.20;0.20;;;;;;;6.32;71.83;101738.13;4967837;28;20039;-90
2023/12/31 07:25:25;;;;;;;0.20;0.20;;;;;;;6.41;72.03;101755.16;4951688;29;21030;-91
2023/12/31 07:27:51;;;;;;;0.20;0.20;;;;;;;6.49;71.43;101753.31;4951279;29;20033;-90
2023/12/31 07:30:17;;;;;;;0.20;0.20;;;;;;;6.55;70.99;101751.50;4951468;29;20034;-90
2023/12/31 07:32:42;;;;;;;0.20;0.20;;;;;;;6.49;70.80;101735.31;4919347;29;20117;-91
2023/12/31 07:35:08;;;;;;;0.10;0.10;;;;;;;6.60;70.75;101754.88;4967704;28;20118;-91
2023/12/31 07:37:33;;;;;;;0.20;0.20;;;;;;;6.70;70.50;101752.16;4935664;29;20063;-90
2023/12/31 07:39:59;;;;;;;0.20;0.20;;;;;;;6.78;70.56;101760.59;4951497;29;20386;-91
2023/12/31 07:42:24;;;;;;;0.20;0.20;;;;;;;6.75;70.30;101730.63;4967561;28;20062;-91
2023/12/31 07:44:50;;;;;;;0.10;0.10;;;;;;;6.87;70.23;101752.75;4919739;29;20504;-92
2023/12/31 07:47:16;;;;;;;0.20;0.20;;;;;;;6.93;69.93;101754.38;4967204;28;20406;-88
2023/12/31 07:49:41;;;;;;;0.10;0.10;;;;;;;7.03;68.71;101764.50;4951001;29;20034;-91
2023/12/31 07:52:07;;;;;;;0.20;0.20;;;;;;;7.03;69.01;101761.06;4951798;29;20027;-91
2023/12/31 07:54:32;;;;;;;0.10;0.10;;;;;;;6.89;68.90;101748.44;4967389;28;20038;-90
2023/12/31 07:56:58;;;;;;;0.20;0.20;;;;;;;6.86;68.89;101743.31;4954718;29;20040;-89
2023/12/31 07:59:24;;;;;;;0.10;0.10;;;;;;;7.08;68.88;101770.44;4956587;29;20031;-90
2023/12/31 08:01:49;;;;;;;0.20;0.20;;;;;;;7.22;68.75;101779.66;4938938;29;20035;-90
2023/12/31 08:04:15;;;;;;;0.20;0.20;;;;;;;7.30;68.19;101764.94;4939385;29;20412;-90
2023/12/31 08:06:40;;;;;;;0.10;0.10;;;;;;;7.48;67.29;101769.75;4954985;29;20035;-91
2023/12/31 08:09:06;;;;;;;0.20;0.20;;;;;;;7.54;67.21;101771.34;4955067;29;20035;-90
2023/12/31 08:11:32;;;;;;;0.20;0.20;;;;;;;7.41;67.77;101748.41;4939235;29;20035;-92
2023/12/31 08:13:57;;;;;;;0.20;0.20;;;;;;;7.61;67.93;101781.53;4955716;29;20070;-92
2023/12/31 08:16:23;;;;;;;0.20;0.20;;;;;;;7.49;68.06;101766.31;4954537;29;20031;-90
2023/12/31 08:18:48;;;;;;;0.10;0.10;;;;;;;7.60;68.39;101764.38;4970907;28;20035;-91
2023/12/31 08:21:14;;;;;;;0.20;0.20;;;;;;;7.65;68.54;101778.00;4938380;29;20031;-91
2023/12/31 08:23:39;;;;;;;0.10;0.10;;;;;;;7.82;67.90;101794.88;4970428;28;20474;-89
2023/12/31 08:26:05;;;;;;;0.20;0.20;;;;;;;7.80;67.88;101792.34;4954505;29;20122;-90
2023/12/31 08:28:30;;;;;;;0.20;0.20;;;;;;;7.86;67.99;101796.50;4954687;29;20059;-90
2023/12/31 08:30:56;;;;;;;0.20;0.20;;;;;;;7.84;67.76;101803.41;4938251;29;20159;-88
2023/12/31 08:33:21;;;;;;;0.10;0.10;;;;;;;7.72;67.50;101784.75;4954320;29;20038;-91
2023/12/31 08:35:48;;;;;;;0.20;0.20;;;;;;;7.85;67.56;101799.97;4955602;29;20035;-92
2023/12/31 08:38:13;;;;;;;0.20;0.20;;;;;;;7.87;67.69;101803.38;4970254;28;20030;-89
2023/12/31 08:40:39;;;;;;;0.10;0.10;;;;;;;7.95;67.48;101798.91;4938737;29;20039;-91
2023/12/31 08:43:04;;;;;;;0.20;0.20;;;;;;;8.06;67.26;101802.13;4938515;29;20031;-90
2023/12/31 08:45:32;;;;;;;0.20;0.20;;;;;;;8.15;66.74;101801.94;4954427;29;20027;-89
2023/12/31 08:47:58;;;;;;;0.20;0.20;;;;;;;8.21;66.70;101803.56;4938440;29;20046;-91
2023/12/31 08:50:23;;;;;;;0.20;0.20;;;;;;;8.28;66.03;101811.16;4938224;29;20031;-91
2023/12/31 08:52:49;;;;;;;0.20;0.20;;;;;;;8.16;65.56;101785.63;4954382;29;20086;-89
2023/12/31 08:55:15;;;;;;;0.20;0.20;;;;;;;8.24;65.26;101788.88;4955629;29;20065;-90
2023/12/31 08:57:43;;;;;;;0.10;0.10;;;;;;;8.46;64.57;101811.69;4954058;29;20035;-89
2023/12/31 09:00:09;;;;;;;0.20;0.20;;;;;;;8.44;64.72;101796.22;4953888;29;20489;-88
2023/12/31 09:02:35;;;;;;;0.20;0.20;;;;;;;8.51;64.50;101799.53;4955108;29;20032;-90
2023/12/31 09:05:01;;;;;;;0.20;0.20;;;;;;;8.51;64.40;101786.63;4937877;29;20024;-89
2023/12/31 09:07:26;;;;;;;0.20;0.20;;;;;;;8.44;63.92;101754.94;4952807;28;20031;-91
2023/12/31 09:09:52;;;;;;;0.20;0.20;;;;;;;8.77;63.48;101784.31;4954270;29;20481;-91
2023/12/31 09:12:18;;;;;;;0.20;0.20;;;;;;;8.76;63.72;101777.47;4954949;29;20031;-90
2023/12/31 09:14:43;;;;;;;0.20;0.20;;;;;;;8.83;63.32;101788.47;4954044;29;20055;-91
2023/12/31 09:17:09;;;;;;;0.20;0.20;;;;;;;8.90;63.27;101772.81;4954849;29;20023;-91
2023/12/31 09:19:35;;;;;;;0.20;0.20;;;;;;;9.01;62.85;101766.56;4969892;28;20038;-89
2023/12/31 09:22:02;;;;;;;0.20;0.20;;;;;;;9.07;62.50;101771.56;4953521;29;20516;-88
2023/12/31 09:24:29;;;;;;;0.20;0.20;;;;;;;9.15;62.84;101777.41;4969459;28;20491;-89
2023/12/31 09:26:54;;;;;;;0.20;0.20;;;;;;;9.16;62.83;101773.94;4937558;29;20418;-86
2023/12/31 09:29:20;;;;;;;0.20;0.20;;;;;;;9.20;62.42;101760.91;4937031;29;20031;-88
2023/12/31 09:31:45;;;;;;;0.20;0.20;;;;;;;9.27;62.42;101769.34;4953670;29;20485;-86
2023/12/31 09:34:11;;;;;;;0.20;0.20;;;;;;;9.39;62.22;101755.25;4953096;29;20039;-88
2023/12/31 09:36:36;;;;;;;0.20;0.20;;;;;;;9.55;61.88;101763.47;4954450;29;20049;-87
2023/12/31 09:39:02;;;;;;;0.20;0.20;;;;;;;9.53;61.04;101740.22;4954026;29;20035;-87
2023/12/31 09:41:28;;;;;;;0.20;0.20;;;;;;;9.73;61.14;101760.38;4954418;29;20042;-89
2023/12/31 09:43:57;;;;;;;0.20;0.20;;;;;;;9.76;61.04;101757.72;4937169;29;20031;-89
2023/12/31 09:46:23;;;;;;;0.20;0.20;;;;;;;9.82;60.84;101752.38;4953098;29;20035;-89
2023/12/31 09:48:49;;;;;;;0.20;0.20;;;;;;;9.92;60.71;101750.38;4953040;29;20034;-88
2023/12/31 09:51:18;;;;;;;0.20;0.20;;;;;;;9.90;60.81;101737.50;4937074;29;20031;-88
2023/12/31 09:53:47;;;;;;;0.20;0.20;;;;;;;9.83;60.39;101711.84;4937265;29;20031;-88
2023/12/31 09:56:12;;;;;;;0.10;0.10;;;;;;;10.04;60.22;101722.44;4936986;29;20042;-88
2023/12/31 09:58:38;;;;;;;0.20;0.20;;;;;;;10.20;59.67;101727.16;4968336;28;20031;-87
2023/12/31 10:01:04;;;;;;;0.20;0.20;;;;;;;10.35;59.66;101742.25;4936909;29;20039;-86
2023/12/31 10:03:30;;;;;;;0.20;0.20;;;;;;;10.41;59.41;101729.13;4920995;29;20070;-87
2023/12/31 10:05:56;;;;;;;0.20;0.20;;;;;;;10.49;59.43;101724.56;4936703;29;20027;-86
2023/12/31 10:08:22;;;;;;;0.20;0.20;;;;;;;10.53;59.14;101715.81;4936636;29;20501;-90
2023/12/31 10:10:47;;;;;;;0.20;0.20;;;;;;;10.70;59.19;101719.59;4952782;29;20031;-89
2023/12/31 10:13:15;;;;;;;0.20;0.20;;;;;;;10.66;58.84;101718.03;4951701;29;20059;-88
2023/12/31 10:15:40;;;;;;;0.20;0.20;;;;;;;10.61;58.89;101682.75;4936780;29;20031;-88
2023/12/31 10:18:07;;;;;;;0.20;0.20;;;;;;;10.90;58.37;101709.44;4968319;28;20040;-89
2023/12/31 10:20:52;;;;;;;0.20;0.20;;;;;;;10.89;58.57;101706.00;4936698;29;20106;-86
2023/12/31 10:23:18;;;;;;;0.20;0.20;;;;;;;11.03;57.89;101705.56;4953477;29;20031;-87
2023/12/31 10:25:43;;;;;;;0.20;0.20;;;;;;;11.18;57.80;101701.59;4968332;28;20027;-88
2023/12/31 10:28:09;;;;;;;0.20;0.20;;;;;;;11.26;57.76;101696.16;4936129;29;20027;-89
2023/12/31 10:30:37;;;;;;;0.20;0.20;;;;;;;11.33;57.48;101689.88;4953318;29;20028;-88
2023/12/31 10:33:07;;;;;;;0.20;0.20;;;;;;;11.30;57.63;101688.22;4951916;29;20058;-87
2023/12/31 10:35:33;;;;;;;0.20;0.20;;;;;;;11.26;57.42;101654.72;4952124;29;20464;-88
2023/12/31 10:38:04;;;;;;;0.10;0.10;;;;;;;11.48;56.91;101678.94;4952063;29;20043;-87
2023/12/31 10:40:29;;;;;;;0.10;0.10;;;;;;;11.60;57.16;101681.13;4968477;28;20031;-88
2023/12/31 10:42:57;;;;;;;0.10;0.10;;;;;;;11.72;56.30;101680.66;4951789;29;20055;-88
2023/12/31 10:45:23;;;;;;;0.20;0.20;;;;;;;11.86;55.72;101677.59;4967422;28;20514;-89
2023/12/31 10:47:53;;;;;;;0.20;0.20;;;;;;;11.94;55.87;101679.91;4951916;29;20031;-88
2023/12/31 10:50:25;;;;;;;0.20;0.20;;;;;;;12.07;55.09;101675.91;4936808;29;20027;-89
2023/12/31 10:52:53;;;;;;;0.20;0.20;;;;;;;12.02;55.23;101642.41;4951932;29;20117;-89
2023/12/31 10:55:19;;;;;;;0.10;0.10;;;;;;;12.27;54.57;101663.00;4951619;29;20505;-89
2023/12/31 10:57:45;;;;;;;0.10;0.10;;;;;;;12.35;54.23;101663.56;4951051;29;20043;-88
2023/12/31 11:00:13;;;;;;;0.10;0.10;;;;;;;12.38;54.47;101654.81;4951998;29;20031;-90
2023/12/31 11:02:39;;;;;;;0.20;0.20;;;;;;;12.48;54.10;101644.91;4936253;29;20516;-91
2023/12/31 11:05:04;;;;;;;0.20;0.20;;;;;;;12.42;54.09;101632.19;4935914;29;20114;-87
2023/12/31 11:07:30;;;;;;;0.20;0.20;;;;;;;12.50;54.92;101635.31;4935730;29;20034;-89
2023/12/31 11:09:57;;;;;;;0.20;0.20;;;;;;;12.63;54.49;101629.56;4951192;29;20470;-88
2023/12/31 11:12:22;;;;;;;0.20;0.20;;;;;;;12.63;54.04;101610.53;4951536;28;20023;-88
2023/12/31 11:14:53;;;;;;;0.20;0.20;;;;;;;12.56;53.79;101577.94;4919721;29;20089;-89
2023/12/31 11:17:53;;;;;;;0.20;0.20;;;;;;;12.90;54.02;101613.72;4951504;29;20552;-89
2023/12/31 11:20:52;;;;;;;0.20;0.20;;;;;;;12.93;54.04;101596.25;4952454;29;20035;-88
2023/12/31 11:23:23;;;;;;;0.20;0.20;;;;;;;12.96;53.72;101602.22;4952382;29;20057;-88
2023/12/31 11:25:49;;;;;;;0.20;0.20;;;;;;;12.86;53.95;101583.59;4950972;29;20048;-87